createdAt,value
2023-03-05T00:00:45.426Z,60.82
2023-03-05T00:06:05.893Z,61.01
2023-03-05T00:11:34.981Z,61.00
2023-03-05T00:21:45.402Z,61.53
2023-03-05T00:27:03.674Z,61.46
2023-03-05T00:32:35.012Z,61.66
2023-03-05T00:37:56.672Z,61.82
2023-03-05T00:45:06.309Z,61.74
2023-03-05T00:54:09.771Z,62.11
2023-03-05T00:59:13.152Z,62.09
2023-03-05T01:04:37.237Z,62.36
2023-03-05T01:10:03.650Z,62.49
2023-03-05T01:15:25.560Z,62.77
2023-03-05T01:20:37.125Z,63.13
2023-03-05T01:25:35.115Z,63.63
2023-03-05T01:30:30.781Z,63.87
2023-03-05T01:35:30.821Z,63.89
2023-03-05T01:40:37.197Z,64.32
2023-03-05T01:45:42.057Z,64.35
2023-03-05T01:50:55.390Z,64.04
2023-03-05T01:56:20.534Z,64.67
2023-03-05T02:01:22.576Z,64.51
2023-03-05T02:06:42.171Z,65.06
2023-03-05T02:12:00.214Z,64.95
2023-03-05T02:17:08.331Z,65.21
2023-03-05T02:22:11.946Z,65.47
2023-03-05T02:27:08.820Z,65.28
2023-03-05T02:32:10.865Z,65.43
2023-03-05T02:37:04.859Z,65.62
2023-03-05T02:42:05.955Z,65.99
2023-03-05T02:47:02.297Z,65.79
2023-03-05T02:51:55.179Z,66.35
2023-03-05T02:56:48.324Z,66.40
2023-03-05T03:01:41.067Z,66.29
2023-03-05T03:06:33.815Z,66.52
2023-03-05T03:11:27.211Z,66.66
2023-03-05T03:16:19.945Z,66.48
2023-03-05T03:21:20.218Z,66.92
2023-03-05T03:26:13.078Z,66.88
2023-03-05T03:31:08.958Z,66.89
2023-03-05T03:36:01.711Z,67.09
2023-03-05T03:40:54.840Z,67.35
2023-03-05T03:45:47.687Z,67.24
2023-03-05T03:50:44.875Z,67.17
2023-03-05T03:55:38.015Z,67.27
2023-03-05T04:00:30.722Z,67.45
2023-03-05T04:05:23.589Z,67.92
2023-03-05T04:10:16.509Z,68.06
2023-03-05T04:15:11.063Z,68.16
2023-03-05T04:20:05.688Z,68.52
2023-03-05T04:25:13.525Z,68.31
2023-03-05T04:31:08.784Z,68.23
2023-03-05T04:36:01.743Z,68.52
2023-03-05T04:40:54.525Z,68.64
2023-03-05T04:45:47.368Z,68.70
2023-03-05T04:50:40.594Z,68.69
2023-03-05T04:55:33.940Z,69.09
2023-03-05T05:00:26.910Z,69.08
2023-03-05T05:05:22.748Z,69.16
2023-03-05T05:10:18.363Z,69.18
2023-03-05T05:15:13.064Z,69.14
2023-03-05T05:20:08.339Z,69.20
2023-03-05T05:25:01.440Z,69.22
2023-03-05T05:29:54.832Z,69.14
2023-03-05T05:34:47.747Z,69.18
2023-03-05T05:39:40.630Z,68.92
2023-03-05T05:44:35.109Z,69.04
2023-03-05T05:49:28.029Z,69.22
2023-03-05T05:54:20.867Z,69.26
2023-03-05T05:59:13.756Z,69.57
2023-03-05T06:04:07.326Z,69.15
2023-03-05T06:09:00.156Z,69.23
2023-03-05T06:13:53.050Z,69.33
2023-03-05T06:18:47.768Z,69.55
2023-03-05T06:23:40.704Z,69.09
2023-03-05T06:28:37.537Z,69.14
2023-03-05T06:33:31.469Z,69.23
2023-03-05T06:38:24.365Z,68.83
2023-03-05T06:43:20.110Z,68.47
2023-03-05T06:48:12.977Z,68.29
2023-03-05T06:53:06.634Z,67.69
2023-03-05T06:57:59.378Z,66.93
2023-03-05T07:02:52.084Z,66.29
2023-03-05T07:07:45.585Z,65.61
2023-03-05T07:12:38.895Z,65.01
2023-03-05T07:17:31.553Z,64.34
2023-03-05T07:22:24.204Z,63.81
2023-03-05T07:27:17.233Z,63.32
2023-03-05T07:32:10.781Z,62.88
2023-03-05T07:37:03.562Z,62.39
2023-03-05T07:41:56.331Z,62.29
2023-03-05T07:46:52.952Z,61.93
2023-03-05T07:51:45.861Z,61.80
2023-03-05T07:56:38.646Z,61.44
2023-03-05T08:01:32.504Z,60.95
2023-03-05T08:06:25.440Z,60.54
2023-03-05T08:11:18.846Z,60.80
2023-03-05T08:16:19.672Z,60.59
2023-03-05T08:21:21.974Z,59.24
2023-03-05T08:26:17.009Z,59.68
2023-03-05T08:31:13.601Z,59.53
2023-03-05T08:36:06.724Z,59.83
2023-03-05T08:40:59.546Z,60.18
2023-03-05T08:45:53.768Z,60.02
2023-03-05T08:50:46.593Z,59.89
2023-03-05T08:55:39.697Z,60.44
2023-03-05T09:00:32.417Z,60.09
2023-03-05T09:05:25.044Z,60.25
2023-03-05T09:10:19.794Z,60.64
2023-03-05T09:15:13.974Z,60.09
2023-03-05T09:20:08.504Z,60.01
2023-03-05T09:25:01.208Z,60.23
2023-03-05T09:29:54.266Z,60.29
2023-03-05T09:34:47.053Z,60.15
2023-03-05T09:39:39.702Z,59.73
2023-03-05T09:45:02.275Z,59.66
2023-03-05T09:50:15.554Z,59.97
2023-03-05T09:55:26.235Z,60.18
2023-03-05T10:00:33.142Z,60.47
2023-03-05T10:05:32.242Z,60.60
2023-03-05T10:10:32.982Z,60.49
2023-03-05T10:15:41.056Z,60.32
2023-03-05T10:20:55.091Z,60.41
2023-03-05T10:25:53.844Z,60.60
2023-03-05T10:30:58.454Z,60.14
2023-03-05T10:36:31.099Z,60.27
2023-03-05T10:41:33.997Z,60.51
2023-03-05T10:46:34.699Z,60.12
2023-03-05T10:51:42.340Z,60.26
2023-03-05T10:56:35.093Z,60.53
2023-03-05T11:01:30.451Z,60.95
2023-03-05T11:06:38.542Z,60.83
2023-03-05T11:11:33.791Z,61.25
2023-03-05T11:16:35.254Z,61.60
2023-03-05T11:21:29.239Z,61.82
2023-03-05T11:26:24.142Z,62.03
2023-03-05T11:31:19.297Z,62.27
2023-03-05T11:36:33.507Z,62.43
2023-03-05T11:41:41.722Z,62.54
2023-03-05T11:46:42.557Z,62.95
2023-03-05T11:51:52.475Z,63.62
2023-03-05T11:56:46.908Z,64.69
2023-03-05T12:01:48.696Z,65.59
2023-03-05T12:06:52.014Z,66.13
2023-03-05T12:11:46.113Z,66.36
2023-03-05T12:16:52.533Z,66.71
2023-03-05T12:21:49.560Z,66.79
2023-03-05T12:26:54.375Z,67.00
2023-03-05T12:31:47.062Z,67.21
2023-03-05T12:36:40.754Z,66.84
2023-03-05T12:41:35.773Z,67.40
2023-03-05T12:46:29.769Z,67.31
2023-03-05T12:51:34.901Z,67.82
2023-03-05T12:56:31.222Z,67.74
2023-03-05T13:01:40.238Z,68.19
2023-03-05T13:06:35.613Z,68.24
2023-03-05T13:11:31.245Z,68.43
2023-03-05T13:16:30.129Z,68.34
2023-03-05T13:21:27.813Z,68.69
2023-03-05T13:26:21.564Z,68.86
2023-03-05T13:31:18.655Z,69.11
2023-03-05T13:36:17.391Z,68.94
2023-03-05T13:41:12.784Z,69.19
2023-03-05T13:46:05.878Z,69.11
2023-03-05T13:50:59.620Z,69.28
2023-03-05T13:55:54.636Z,69.37
2023-03-05T14:00:47.355Z,69.38
2023-03-05T14:05:45.858Z,69.63
2023-03-05T14:10:39.778Z,69.74
2023-03-05T14:15:35.481Z,69.75
2023-03-05T14:20:30.456Z,69.82
2023-03-05T14:25:42.347Z,69.44
2023-03-05T14:30:36.617Z,69.55
2023-03-05T14:35:30.742Z,69.60
2023-03-05T14:40:38.047Z,69.53
2023-03-05T14:45:34.114Z,69.79
2023-03-05T14:50:30.088Z,69.88
2023-03-05T14:55:26.069Z,69.79
2023-03-05T15:00:21.750Z,69.80
2023-03-05T15:05:14.578Z,70.02
2023-03-05T15:10:08.801Z,70.37
2023-03-05T15:15:01.825Z,70.26
2023-03-05T15:19:54.847Z,70.30
2023-03-05T15:24:47.951Z,70.58
2023-03-05T15:29:40.685Z,70.38
2023-03-05T15:34:34.873Z,70.57
2023-03-05T15:39:27.553Z,70.76
2023-03-05T15:44:21.455Z,70.76
2023-03-05T15:49:14.937Z,71.01
2023-03-05T15:54:07.886Z,70.97
2023-03-05T15:59:01.434Z,71.15
2023-03-05T16:03:54.463Z,70.89
2023-03-05T16:08:48.557Z,71.23
2023-03-05T16:13:43.110Z,71.27
2023-03-05T16:18:41.434Z,71.21
2023-03-05T16:23:34.586Z,71.37
2023-03-05T16:28:27.424Z,71.66
2023-03-05T16:33:20.094Z,71.60
2023-03-05T16:38:12.731Z,71.61
2023-03-05T16:43:05.476Z,71.99
2023-03-05T16:47:59.390Z,72.16
2023-03-05T16:52:52.101Z,72.20
2023-03-05T16:57:44.838Z,72.26
2023-03-05T17:02:37.732Z,72.40
2023-03-05T17:07:30.408Z,72.43
2023-03-05T17:12:24.414Z,72.66
2023-03-05T17:17:17.113Z,72.73
2023-03-05T17:22:12.138Z,73.04
2023-03-05T17:27:05.165Z,73.03
2023-03-05T17:31:57.837Z,73.19
2023-03-05T17:36:51.122Z,73.34
2023-03-05T17:41:43.737Z,73.33
2023-03-05T17:46:36.364Z,73.53
2023-03-05T17:51:29.037Z,73.52
2023-03-05T17:56:22.246Z,73.60
2023-03-05T18:01:33.191Z,73.94
2023-03-05T18:06:26.275Z,73.96
2023-03-05T18:11:19.563Z,74.13
2023-03-05T18:16:14.416Z,74.31
2023-03-05T18:21:07.126Z,74.34
2023-03-05T18:25:59.818Z,74.53
2023-03-05T18:30:53.138Z,74.65
2023-03-05T18:35:45.899Z,74.67
2023-03-05T18:40:40.818Z,74.61
2023-03-05T18:45:34.307Z,74.82
2023-03-05T18:50:29.033Z,75.01
2023-03-05T18:55:25.670Z,75.18
2023-03-05T19:00:25.010Z,75.13
2023-03-05T19:05:18.322Z,75.20
2023-03-05T19:10:13.741Z,75.35
2023-03-05T19:15:07.787Z,75.32
2023-03-05T19:20:00.604Z,75.42
2023-03-05T19:24:54.592Z,75.32
2023-03-05T19:29:47.430Z,75.32
2023-03-05T19:34:40.153Z,75.58
2023-03-05T19:39:33.748Z,75.38
2023-03-05T19:44:27.356Z,75.86
2023-03-05T19:49:21.209Z,75.65
2023-03-05T19:54:16.140Z,75.73
2023-03-05T19:59:09.281Z,75.41
2023-03-05T20:04:05.675Z,75.31
2023-03-05T20:08:59.828Z,75.50
2023-03-05T20:13:54.228Z,75.60
2023-03-05T20:18:47.781Z,75.43
2023-03-05T20:23:41.269Z,75.55
2023-03-05T20:28:35.182Z,75.79
2023-03-05T20:33:29.730Z,75.32
2023-03-05T20:38:25.399Z,75.02
2023-03-05T20:43:19.879Z,74.68
2023-03-05T20:48:13.091Z,75.08
2023-03-05T20:53:07.345Z,75.33
2023-03-05T20:58:00.068Z,75.43
2023-03-05T21:02:55.370Z,75.74
2023-03-05T21:07:48.012Z,75.72
2023-03-05T21:12:41.490Z,75.74
2023-03-05T21:17:34.238Z,75.67
2023-03-05T21:22:27.030Z,75.41
2023-03-05T21:27:19.734Z,75.37
2023-03-05T21:32:12.821Z,75.45
2023-03-05T21:37:05.493Z,75.28
2023-03-05T21:41:58.281Z,75.39
2023-03-05T21:46:51.588Z,75.35
2023-03-05T21:51:57.116Z,75.38
2023-03-05T21:56:49.733Z,75.54
2023-03-05T22:01:42.451Z,75.81
2023-03-05T22:06:35.248Z,75.66
2023-03-05T22:11:27.878Z,75.63
2023-03-05T22:16:28.572Z,75.73
2023-03-05T22:21:26.676Z,75.70
2023-03-05T22:26:19.408Z,75.24
2023-03-05T22:31:12.134Z,75.58
2023-03-05T22:36:09.828Z,75.72
2023-03-05T22:41:03.064Z,75.84
2023-03-05T22:45:55.827Z,75.87
2023-03-05T22:50:56.540Z,75.91
2023-03-05T22:55:49.280Z,75.81
2023-03-05T23:00:44.817Z,75.71
2023-03-05T23:05:39.783Z,75.59
2023-03-05T23:10:33.041Z,75.53
2023-03-05T23:15:32.045Z,75.81
2023-03-05T23:20:27.882Z,75.70
2023-03-05T23:25:21.652Z,75.75
2023-03-05T23:30:22.855Z,76.09
2023-03-05T23:35:18.196Z,76.03
2023-03-05T23:40:17.340Z,76.06
2023-03-05T23:45:12.547Z,76.17
2023-03-05T23:50:07.270Z,75.89
2023-03-05T23:55:00.296Z,75.96
2023-03-05T23:59:52.980Z,76.30
